sensor_id;sensor_type;location;lat;lon;timestamp;temperature;humidity
8463;DHT22;4268;52.506;13.462;2022-08-19T00:00:23;21.80;99.90
8463;DHT22;4268;52.506;13.462;2022-08-19T00:02:49;21.90;99.90
8463;DHT22;4268;52.506;13.462;2022-08-19T00:05:15;21.90;99.90
8463;DHT22;4268;52.506;13.462;2022-08-19T00:07:42;21.90;99.90
8463;DHT22;4268;52.506;13.462;2022-08-19T00:10:11;21.90;99.90
8463;DHT22;4268;52.506;13.462;2022-08-19T00:12:37;21.90;99.90
8463;DHT22;4268;52.506;13.462;2022-08-19T00:15:04;21.80;99.90
8463;DHT22;4268;52.506;13.462;2022-08-19T00:17:30;21.80;99.90
8463;DHT22;4268;52.506;13.462;2022-08-19T00:19:55;21.90;99.90
8463;DHT22;4268;52.506;13.462;2022-08-19T00:22:21;21.80;99.90
8463;DHT22;4268;52.506;13.462;2022-08-19T00:24:47;21.80;99.90
8463;DHT22;4268;52.506;13.462;2022-08-19T00:27:13;21.80;99.90
8463;DHT22;4268;52.506;13.462;2022-08-19T00:29:38;21.80;99.90
8463;DHT22;4268;52.506;13.462;2022-08-19T00:32:05;21.80;99.90
8463;DHT22;4268;52.506;13.462;2022-08-19T00:34:31;21.80;99.90
8463;DHT22;4268;52.506;13.462;2022-08-19T00:36:57;21.90;99.90
8463;DHT22;4268;52.506;13.462;2022-08-19T00:39:23;21.90;99.90
8463;DHT22;4268;52.506;13.462;2022-08-19T00:41:50;21.90;99.90
8463;DHT22;4268;52.506;13.462;2022-08-19T00:44:22;21.90;99.90
8463;DHT22;4268;52.506;13.462;2022-08-19T00:46:49;21.90;99.90
8463;DHT22;4268;52.506;13.462;2022-08-19T00:49:36;21.90;99.90
8463;DHT22;4268;52.506;13.462;2022-08-19T00:52:16;21.80;99.90
8463;DHT22;4268;52.506;13.462;2022-08-19T00:54:43;21.70;99.90
8463;DHT22;4268;52.506;13.462;2022-08-19T00:57:12;21.60;99.90
8463;DHT22;4268;52.506;13.462;2022-08-19T00:59:41;21.50;99.90
8463;DHT22;4268;52.506;13.462;2022-08-19T01:02:08;21.40;99.90
8463;DHT22;4268;52.506;13.462;2022-08-19T01:04:34;21.40;99.90
8463;DHT22;4268;52.506;13.462;2022-08-19T01:07:01;21.30;99.90
8463;DHT22;4268;52.506;13.462;2022-08-19T01:09:27;21.30;99.90
8463;DHT22;4268;52.506;13.462;2022-08-19T01:11:52;21.30;99.90
8463;DHT22;4268;52.506;13.462;2022-08-19T01:14:19;21.30;99.90
8463;DHT22;4268;52.506;13.462;2022-08-19T01:16:45;21.30;99.90
8463;DHT22;4268;52.506;13.462;2022-08-19T01:19:42;21.30;99.90
8463;DHT22;4268;52.506;13.462;2022-08-19T01:24:49;21.30;99.90
8463;DHT22;4268;52.506;13.462;2022-08-19T01:27:14;21.40;99.90
8463;DHT22;4268;52.506;13.462;2022-08-19T01:29:41;21.20;99.90
8463;DHT22;4268;52.506;13.462;2022-08-19T01:32:10;21.10;99.90
8463;DHT22;4268;52.506;13.462;2022-08-19T01:34:36;21.20;99.90
8463;DHT22;4268;52.506;13.462;2022-08-19T01:37:07;21.10;99.90
8463;DHT22;4268;52.506;13.462;2022-08-19T01:39:33;21.20;99.90
8463;DHT22;4268;52.506;13.462;2022-08-19T01:41:59;21.20;99.90
8463;DHT22;4268;52.506;13.462;2022-08-19T01:44:28;21.20;99.90
8463;DHT22;4268;52.506;13.462;2022-08-19T01:46:54;21.20;99.90
8463;DHT22;4268;52.506;13.462;2022-08-19T01:49:21;21.20;99.90
8463;DHT22;4268;52.506;13.462;2022-08-19T01:51:48;21.20;99.90
8463;DHT22;4268;52.506;13.462;2022-08-19T01:54:16;21.10;99.90
8463;DHT22;4268;52.506;13.462;2022-08-19T01:56:42;21.10;99.90
8463;DHT22;4268;52.506;13.462;2022-08-19T01:59:13;21.10;99.90
8463;DHT22;4268;52.506;13.462;2022-08-19T02:01:40;21.10;99.90
8463;DHT22;4268;52.506;13.462;2022-08-19T02:04:05;21.00;99.90
8463;DHT22;4268;52.506;13.462;2022-08-19T02:06:31;20.80;99.90
8463;DHT22;4268;52.506;13.462;2022-08-19T02:08:58;20.60;99.90
8463;DHT22;4268;52.506;13.462;2022-08-19T02:11:32;20.60;99.90
8463;DHT22;4268;52.506;13.462;2022-08-19T02:14:03;20.50;99.90
8463;DHT22;4268;52.506;13.462;2022-08-19T02:16:29;20.50;99.90
8463;DHT22;4268;52.506;13.462;2022-08-19T02:18:55;20.50;99.90
8463;DHT22;4268;52.506;13.462;2022-08-19T02:21:23;20.50;99.90
8463;DHT22;4268;52.506;13.462;2022-08-19T02:23:50;20.40;99.90
8463;DHT22;4268;52.506;13.462;2022-08-19T02:26:16;20.40;99.90
8463;DHT22;4268;52.506;13.462;2022-08-19T02:28:42;20.30;99.90
8463;DHT22;4268;52.506;13.462;2022-08-19T02:31:17;20.40;99.90
8463;DHT22;4268;52.506;13.462;2022-08-19T02:33:44;20.30;99.90
8463;DHT22;4268;52.506;13.462;2022-08-19T02:36:12;20.40;99.90
8463;DHT22;4268;52.506;13.462;2022-08-19T02:38:38;20.30;99.90
8463;DHT22;4268;52.506;13.462;2022-08-19T02:41:07;20.30;99.90
8463;DHT22;4268;52.506;13.462;2022-08-19T02:43:35;20.30;99.90
8463;DHT22;4268;52.506;13.462;2022-08-19T02:46:14;20.30;99.90
8463;DHT22;4268;52.506;13.462;2022-08-19T02:48:40;20.30;99.90
8463;DHT22;4268;52.506;13.462;2022-08-19T02:51:05;20.30;99.90
8463;DHT22;4268;52.506;13.462;2022-08-19T02:53:31;20.40;99.90
8463;DHT22;4268;52.506;13.462;2022-08-19T02:55:57;20.40;99.90
8463;DHT22;4268;52.506;13.462;2022-08-19T02:58:23;20.40;99.90
8463;DHT22;4268;52.506;13.462;2022-08-19T03:00:51;20.40;99.90
8463;DHT22;4268;52.506;13.462;2022-08-19T03:03:19;20.40;99.90
8463;DHT22;4268;52.506;13.462;2022-08-19T03:05:45;20.40;99.90
8463;DHT22;4268;52.506;13.462;2022-08-19T03:08:11;20.40;99.90
8463;DHT22;4268;52.506;13.462;2022-08-19T03:10:45;20.40;99.90
8463;DHT22;4268;52.506;13.462;2022-08-19T03:13:16;20.40;99.90
8463;DHT22;4268;52.506;13.462;2022-08-19T03:15:44;20.40;99.90
8463;DHT22;4268;52.506;13.462;2022-08-19T03:18:10;20.40;99.90
8463;DHT22;4268;52.506;13.462;2022-08-19T03:20:47;20.40;99.90
8463;DHT22;4268;52.506;13.462;2022-08-19T03:23:12;20.40;99.90
8463;DHT22;4268;52.506;13.462;2022-08-19T03:25:40;20.40;99.90
8463;DHT22;4268;52.506;13.462;2022-08-19T03:28:09;20.40;99.90
8463;DHT22;4268;52.506;13.462;2022-08-19T03:30:35;20.40;99.90
8463;DHT22;4268;52.506;13.462;2022-08-19T03:33:00;20.40;99.90
8463;DHT22;4268;52.506;13.462;2022-08-19T03:35:27;20.30;99.90
8463;DHT22;4268;52.506;13.462;2022-08-19T03:37:52;20.30;99.90
8463;DHT22;4268;52.506;13.462;2022-08-19T03:40:18;20.30;99.90
8463;DHT22;4268;52.506;13.462;2022-08-19T03:42:44;20.30;99.90
8463;DHT22;4268;52.506;13.462;2022-08-19T03:45:11;20.30;99.90
8463;DHT22;4268;52.506;13.462;2022-08-19T03:47:37;20.30;99.90
8463;DHT22;4268;52.506;13.462;2022-08-19T03:50:03;20.30;99.90
8463;DHT22;4268;52.506;13.462;2022-08-19T03:52:29;20.30;99.90
8463;DHT22;4268;52.506;13.462;2022-08-19T03:54:54;20.20;99.90
8463;DHT22;4268;52.506;13.462;2022-08-19T03:57:20;20.30;99.90
8463;DHT22;4268;52.506;13.462;2022-08-19T03:59:45;20.30;99.90
8463;DHT22;4268;52.506;13.462;2022-08-19T04:02:12;20.30;99.90
8463;DHT22;4268;52.506;13.462;2022-08-19T04:04:40;20.30;99.90
8463;DHT22;4268;52.506;13.462;2022-08-19T04:07:06;20.20;99.90
8463;DHT22;4268;52.506;13.462;2022-08-19T04:09:34;20.40;99.90
8463;DHT22;4268;52.506;13.462;2022-08-19T04:12:00;20.30;99.90
8463;DHT22;4268;52.506;13.462;2022-08-19T04:14:28;20.20;99.90
8463;DHT22;4268;52.506;13.462;2022-08-19T04:16:58;20.30;99.90
8463;DHT22;4268;52.506;13.462;2022-08-19T04:19:25;20.30;99.90
8463;DHT22;4268;52.506;13.462;2022-08-19T04:21:53;20.30;99.90
8463;DHT22;4268;52.506;13.462;2022-08-19T04:24:19;20.30;99.90
8463;DHT22;4268;52.506;13.462;2022-08-19T04:26:45;20.30;99.90
8463;DHT22;4268;52.506;13.462;2022-08-19T04:29:31;20.40;99.90
8463;DHT22;4268;52.506;13.462;2022-08-19T04:31:57;20.40;99.90
8463;DHT22;4268;52.506;13.462;2022-08-19T04:34:26;20.40;99.90
8463;DHT22;4268;52.506;13.462;2022-08-19T04:36:53;20.40;99.90
8463;DHT22;4268;52.506;13.462;2022-08-19T04:39:24;20.50;99.90
8463;DHT22;4268;52.506;13.462;2022-08-19T04:42:13;20.40;99.90
8463;DHT22;4268;52.506;13.462;2022-08-19T04:44:58;20.50;99.90
8463;DHT22;4268;52.506;13.462;2022-08-19T04:47:24;20.50;99.90
8463;DHT22;4268;52.506;13.462;2022-08-19T04:49:49;20.60;99.90
8463;DHT22;4268;52.506;13.462;2022-08-19T04:52:15;20.60;99.90
8463;DHT22;4268;52.506;13.462;2022-08-19T04:54:40;20.60;99.90
8463;DHT22;4268;52.506;13.462;2022-08-19T04:57:07;20.70;99.90
8463;DHT22;4268;52.506;13.462;2022-08-19T04:59:34;20.70;99.90
8463;DHT22;4268;52.506;13.462;2022-08-19T05:01:59;20.80;99.90
8463;DHT22;4268;52.506;13.462;2022-08-19T05:04:25;20.90;99.90
8463;DHT22;4268;52.506;13.462;2022-08-19T05:06:50;21.00;99.90
8463;DHT22;4268;52.506;13.462;2022-08-19T05:09:17;21.00;99.90
8463;DHT22;4268;52.506;13.462;2022-08-19T05:11:43;21.00;99.90
8463;DHT22;4268;52.506;13.462;2022-08-19T05:14:10;21.10;99.90
8463;DHT22;4268;52.506;13.462;2022-08-19T05:16:38;21.20;99.90
8463;DHT22;4268;52.506;13.462;2022-08-19T05:19:03;21.10;99.90
8463;DHT22;4268;52.506;13.462;2022-08-19T05:21:47;21.20;99.90
8463;DHT22;4268;52.506;13.462;2022-08-19T05:24:32;21.20;99.90
8463;DHT22;4268;52.506;13.462;2022-08-19T05:26:59;21.30;99.90
8463;DHT22;4268;52.506;13.462;2022-08-19T05:29:27;21.30;99.90
8463;DHT22;4268;52.506;13.462;2022-08-19T05:31:53;21.30;99.90
8463;DHT22;4268;52.506;13.462;2022-08-19T05:34:21;21.30;99.90
8463;DHT22;4268;52.506;13.462;2022-08-19T05:36:49;21.30;99.90
8463;DHT22;4268;52.506;13.462;2022-08-19T05:41:49;21.40;99.90
8463;DHT22;4268;52.506;13.462;2022-08-19T05:44:16;21.40;99.90
8463;DHT22;4268;52.506;13.462;2022-08-19T05:46:43;21.50;99.90
8463;DHT22;4268;52.506;13.462;2022-08-19T05:49:08;21.50;99.90
8463;DHT22;4268;52.506;13.462;2022-08-19T05:51:36;21.50;99.90
8463;DHT22;4268;52.506;13.462;2022-08-19T05:54:03;21.60;99.90
8463;DHT22;4268;52.506;13.462;2022-08-19T05:56:29;21.60;99.90
8463;DHT22;4268;52.506;13.462;2022-08-19T05:59:00;21.80;99.90
8463;DHT22;4268;52.506;13.462;2022-08-19T06:01:26;21.90;99.90
8463;DHT22;4268;52.506;13.462;2022-08-19T06:03:52;22.00;99.90
8463;DHT22;4268;52.506;13.462;2022-08-19T06:06:18;22.10;99.90
8463;DHT22;4268;52.506;13.462;2022-08-19T06:08:44;22.10;99.90
8463;DHT22;4268;52.506;13.462;2022-08-19T06:11:34;22.10;99.90
8463;DHT22;4268;52.506;13.462;2022-08-19T06:14:04;22.20;99.90
8463;DHT22;4268;52.506;13.462;2022-08-19T06:16:30;22.30;99.90
8463;DHT22;4268;52.506;13.462;2022-08-19T06:19:03;22.20;99.90
8463;DHT22;4268;52.506;13.462;2022-08-19T06:21:29;22.20;99.90
8463;DHT22;4268;52.506;13.462;2022-08-19T06:23:56;22.20;99.90
8463;DHT22;4268;52.506;13.462;2022-08-19T06:26:22;22.20;99.90
8463;DHT22;4268;52.506;13.462;2022-08-19T06:28:49;22.30;99.90
8463;DHT22;4268;52.506;13.462;2022-08-19T06:31:17;22.30;99.90
8463;DHT22;4268;52.506;13.462;2022-08-19T06:33:44;22.40;99.90
8463;DHT22;4268;52.506;13.462;2022-08-19T06:36:28;22.40;99.90
8463;DHT22;4268;52.506;13.462;2022-08-19T06:38:58;22.50;99.90
8463;DHT22;4268;52.506;13.462;2022-08-19T06:41:24;22.60;99.90
8463;DHT22;4268;52.506;13.462;2022-08-19T06:43:50;22.60;99.90
8463;DHT22;4268;52.506;13.462;2022-08-19T06:46:17;22.70;99.90
8463;DHT22;4268;52.506;13.462;2022-08-19T06:48:45;22.70;99.90
8463;DHT22;4268;52.506;13.462;2022-08-19T06:51:15;22.70;99.90
8463;DHT22;4268;52.506;13.462;2022-08-19T06:53:44;22.70;99.90
8463;DHT22;4268;52.506;13.462;2022-08-19T06:56:15;22.70;99.90
8463;DHT22;4268;52.506;13.462;2022-08-19T06:58:42;22.70;99.90
8463;DHT22;4268;52.506;13.462;2022-08-19T07:01:08;22.70;99.90
8463;DHT22;4268;52.506;13.462;2022-08-19T07:03:36;22.80;99.90
8463;DHT22;4268;52.506;13.462;2022-08-19T07:06:09;22.80;99.90
8463;DHT22;4268;52.506;13.462;2022-08-19T07:08:36;22.80;99.90
8463;DHT22;4268;52.506;13.462;2022-08-19T07:11:06;22.80;99.90
8463;DHT22;4268;52.506;13.462;2022-08-19T07:13:33;22.90;99.90
8463;DHT22;4268;52.506;13.462;2022-08-19T07:16:06;22.90;99.90
8463;DHT22;4268;52.506;13.462;2022-08-19T07:18:33;22.90;99.90
8463;DHT22;4268;52.506;13.462;2022-08-19T07:21:08;22.80;99.90
8463;DHT22;4268;52.506;13.462;2022-08-19T07:23:35;22.90;99.90
8463;DHT22;4268;52.506;13.462;2022-08-19T07:28:32;22.90;99.90
8463;DHT22;4268;52.506;13.462;2022-08-19T07:30:57;23.00;99.90
8463;DHT22;4268;52.506;13.462;2022-08-19T07:33:23;23.00;99.90
8463;DHT22;4268;52.506;13.462;2022-08-19T07:35:48;23.10;99.90
8463;DHT22;4268;52.506;13.462;2022-08-19T07:38:16;23.10;99.90
8463;DHT22;4268;52.506;13.462;2022-08-19T07:40:42;23.10;99.90
8463;DHT22;4268;52.506;13.462;2022-08-19T07:43:08;23.10;99.90
8463;DHT22;4268;52.506;13.462;2022-08-19T07:45:34;23.10;99.90
8463;DHT22;4268;52.506;13.462;2022-08-19T07:47:59;23.10;99.90
8463;DHT22;4268;52.506;13.462;2022-08-19T07:50:26;23.10;99.90
8463;DHT22;4268;52.506;13.462;2022-08-19T07:52:52;23.10;99.90
8463;DHT22;4268;52.506;13.462;2022-08-19T07:55:21;23.10;99.90
8463;DHT22;4268;52.506;13.462;2022-08-19T07:57:47;23.00;99.90
8463;DHT22;4268;52.506;13.462;2022-08-19T08:00:13;23.00;99.90
8463;DHT22;4268;52.506;13.462;2022-08-19T08:02:38;23.00;99.90
8463;DHT22;4268;52.506;13.462;2022-08-19T08:05:04;23.00;99.90
8463;DHT22;4268;52.506;13.462;2022-08-19T08:08:09;23.00;99.90
8463;DHT22;4268;52.506;13.462;2022-08-19T08:10:53;23.10;99.90
8463;DHT22;4268;52.506;13.462;2022-08-19T08:13:19;23.10;99.90
8463;DHT22;4268;52.506;13.462;2022-08-19T08:15:44;23.20;99.90
8463;DHT22;4268;52.506;13.462;2022-08-19T08:18:11;23.30;99.90
8463;DHT22;4268;52.506;13.462;2022-08-19T08:20:37;23.30;99.90
8463;DHT22;4268;52.506;13.462;2022-08-19T08:23:02;23.30;99.90
8463;DHT22;4268;52.506;13.462;2022-08-19T08:25:47;23.30;99.90
8463;DHT22;4268;52.506;13.462;2022-08-19T08:28:14;23.30;99.90
8463;DHT22;4268;52.506;13.462;2022-08-19T08:30:40;23.30;99.90
8463;DHT22;4268;52.506;13.462;2022-08-19T08:33:07;23.50;99.90
8463;DHT22;4268;52.506;13.462;2022-08-19T08:35:33;23.50;99.90
8463;DHT22;4268;52.506;13.462;2022-08-19T08:37:59;23.70;99.90
8463;DHT22;4268;52.506;13.462;2022-08-19T08:40:44;24.00;99.90
8463;DHT22;4268;52.506;13.462;2022-08-19T08:43:32;24.20;99.90
8463;DHT22;4268;52.506;13.462;2022-08-19T08:46:03;24.50;99.90
8463;DHT22;4268;52.506;13.462;2022-08-19T08:51:03;24.80;99.90
8463;DHT22;4268;52.506;13.462;2022-08-19T08:53:30;24.30;99.90
8463;DHT22;4268;52.506;13.462;2022-08-19T08:55:57;25.00;99.90
8463;DHT22;4268;52.506;13.462;2022-08-19T08:58:29;25.00;99.90
8463;DHT22;4268;52.506;13.462;2022-08-19T09:00:56;24.80;99.90
8463;DHT22;4268;52.506;13.462;2022-08-19T09:03:25;24.70;99.90
8463;DHT22;4268;52.506;13.462;2022-08-19T09:06:26;24.60;99.90
8463;DHT22;4268;52.506;13.462;2022-08-19T09:08:57;24.50;99.90
8463;DHT22;4268;52.506;13.462;2022-08-19T09:14:06;24.60;99.90
8463;DHT22;4268;52.506;13.462;2022-08-19T09:16:34;24.60;99.90
8463;DHT22;4268;52.506;13.462;2022-08-19T09:19:06;24.70;99.90
8463;DHT22;4268;52.506;13.462;2022-08-19T09:21:32;24.80;99.90
8463;DHT22;4268;52.506;13.462;2022-08-19T09:23:58;24.90;99.90
8463;DHT22;4268;52.506;13.462;2022-08-19T09:26:25;24.90;99.90
8463;DHT22;4268;52.506;13.462;2022-08-19T09:28:52;25.00;99.90
8463;DHT22;4268;52.506;13.462;2022-08-19T09:31:23;25.10;99.90
8463;DHT22;4268;52.506;13.462;2022-08-19T09:33:50;25.30;99.90
8463;DHT22;4268;52.506;13.462;2022-08-19T09:36:18;25.30;99.90
8463;DHT22;4268;52.506;13.462;2022-08-19T09:38:45;25.30;99.90
8463;DHT22;4268;52.506;13.462;2022-08-19T09:41:13;25.30;99.90
8463;DHT22;4268;52.506;13.462;2022-08-19T09:43:40;25.20;99.90
8463;DHT22;4268;52.506;13.462;2022-08-19T09:46:07;25.20;99.90
8463;DHT22;4268;52.506;13.462;2022-08-19T09:48:35;25.30;99.90
8463;DHT22;4268;52.506;13.462;2022-08-19T09:51:06;25.30;99.90
8463;DHT22;4268;52.506;13.462;2022-08-19T09:53:34;25.30;99.90
8463;DHT22;4268;52.506;13.462;2022-08-19T09:55:59;25.30;99.90
8463;DHT22;4268;52.506;13.462;2022-08-19T09:58:25;25.30;99.90
8463;DHT22;4268;52.506;13.462;2022-08-19T10:00:54;25.20;99.90
8463;DHT22;4268;52.506;13.462;2022-08-19T10:03:19;25.20;99.90
8463;DHT22;4268;52.506;13.462;2022-08-19T10:05:45;25.20;99.90
8463;DHT22;4268;52.506;13.462;2022-08-19T10:08:14;25.30;99.90
8463;DHT22;4268;52.506;13.462;2022-08-19T10:10:41;25.20;99.90
8463;DHT22;4268;52.506;13.462;2022-08-19T10:13:10;25.10;99.90
8463;DHT22;4268;52.506;13.462;2022-08-19T10:15:36;24.90;99.90
8463;DHT22;4268;52.506;13.462;2022-08-19T10:18:04;24.90;99.90
8463;DHT22;4268;52.506;13.462;2022-08-19T10:20:30;24.80;99.90
8463;DHT22;4268;52.506;13.462;2022-08-19T10:22:56;24.90;99.90
8463;DHT22;4268;52.506;13.462;2022-08-19T10:25:21;24.90;99.90
8463;DHT22;4268;52.506;13.462;2022-08-19T10:27:47;24.90;99.90
8463;DHT22;4268;52.506;13.462;2022-08-19T10:30:13;24.90;99.90
8463;DHT22;4268;52.506;13.462;2022-08-19T10:32:38;25.00;99.90
8463;DHT22;4268;52.506;13.462;2022-08-19T10:35:04;25.10;99.90
8463;DHT22;4268;52.506;13.462;2022-08-19T10:37:35;25.20;99.90
8463;DHT22;4268;52.506;13.462;2022-08-19T10:40:03;25.20;99.90
8463;DHT22;4268;52.506;13.462;2022-08-19T10:42:29;25.10;99.90
8463;DHT22;4268;52.506;13.462;2022-08-19T10:44:56;25.10;99.90
8463;DHT22;4268;52.506;13.462;2022-08-19T10:47:22;25.10;99.90
8463;DHT22;4268;52.506;13.462;2022-08-19T10:49:49;24.80;99.90
8463;DHT22;4268;52.506;13.462;2022-08-19T10:52:33;25.10;99.90
8463;DHT22;4268;52.506;13.462;2022-08-19T10:54:59;25.30;99.90
8463;DHT22;4268;52.506;13.462;2022-08-19T10:57:44;25.10;99.90
8463;DHT22;4268;52.506;13.462;2022-08-19T11:00:10;25.00;99.90
8463;DHT22;4268;52.506;13.462;2022-08-19T11:02:35;24.90;99.90
8463;DHT22;4268;52.506;13.462;2022-08-19T11:05:01;24.90;99.90
8463;DHT22;4268;52.506;13.462;2022-08-19T11:07:27;24.90;99.90
8463;DHT22;4268;52.506;13.462;2022-08-19T11:09:52;24.90;99.90
8463;DHT22;4268;52.506;13.462;2022-08-19T11:12:18;25.00;99.90
8463;DHT22;4268;52.506;13.462;2022-08-19T11:14:44;24.90;99.90
8463;DHT22;4268;52.506;13.462;2022-08-19T11:17:10;24.80;99.90
8463;DHT22;4268;52.506;13.462;2022-08-19T11:19:38;24.80;99.90
8463;DHT22;4268;52.506;13.462;2022-08-19T11:22:10;24.80;99.90
8463;DHT22;4268;52.506;13.462;2022-08-19T11:24:36;24.80;99.90
8463;DHT22;4268;52.506;13.462;2022-08-19T11:27:07;24.70;99.90
8463;DHT22;4268;52.506;13.462;2022-08-19T11:29:35;24.60;99.90
8463;DHT22;4268;52.506;13.462;2022-08-19T11:32:04;24.50;99.90
8463;DHT22;4268;52.506;13.462;2022-08-19T11:34:30;24.70;99.90
8463;DHT22;4268;52.506;13.462;2022-08-19T11:36:56;24.80;99.90
8463;DHT22;4268;52.506;13.462;2022-08-19T11:39:26;24.80;99.90
8463;DHT22;4268;52.506;13.462;2022-08-19T11:41:52;24.90;99.90
8463;DHT22;4268;52.506;13.462;2022-08-19T11:44:18;24.90;99.90
8463;DHT22;4268;52.506;13.462;2022-08-19T11:46:45;24.90;99.90
8463;DHT22;4268;52.506;13.462;2022-08-19T11:49:13;25.00;99.90
8463;DHT22;4268;52.506;13.462;2022-08-19T11:51:39;25.10;99.90
8463;DHT22;4268;52.506;13.462;2022-08-19T11:54:05;25.20;99.90
8463;DHT22;4268;52.506;13.462;2022-08-19T11:56:31;25.30;99.90
8463;DHT22;4268;52.506;13.462;2022-08-19T11:58:58;25.30;99.90
8463;DHT22;4268;52.506;13.462;2022-08-19T12:01:25;25.30;99.90
8463;DHT22;4268;52.506;13.462;2022-08-19T12:03:52;25.30;99.90
8463;DHT22;4268;52.506;13.462;2022-08-19T12:06:21;25.30;99.90
8463;DHT22;4268;52.506;13.462;2022-08-19T12:08:50;25.30;99.90
8463;DHT22;4268;52.506;13.462;2022-08-19T12:11:16;25.30;99.90
8463;DHT22;4268;52.506;13.462;2022-08-19T12:13:42;25.20;99.90
8463;DHT22;4268;52.506;13.462;2022-08-19T12:16:15;25.30;99.90
8463;DHT22;4268;52.506;13.462;2022-08-19T12:18:41;25.30;99.90
8463;DHT22;4268;52.506;13.462;2022-08-19T12:21:09;25.30;99.90
8463;DHT22;4268;52.506;13.462;2022-08-19T12:23:36;25.40;99.90
8463;DHT22;4268;52.506;13.462;2022-08-19T12:26:03;25.40;99.90
8463;DHT22;4268;52.506;13.462;2022-08-19T12:28:28;25.40;99.90
8463;DHT22;4268;52.506;13.462;2022-08-19T12:30:56;25.50;99.90
8463;DHT22;4268;52.506;13.462;2022-08-19T12:33:21;25.50;99.90
8463;DHT22;4268;52.506;13.462;2022-08-19T12:35:50;25.50;99.90
8463;DHT22;4268;52.506;13.462;2022-08-19T12:38:16;25.60;99.90
8463;DHT22;4268;52.506;13.462;2022-08-19T12:40:43;25.50;99.90
8463;DHT22;4268;52.506;13.462;2022-08-19T12:43:10;25.60;99.90
8463;DHT22;4268;52.506;13.462;2022-08-19T12:45:36;25.60;99.90
8463;DHT22;4268;52.506;13.462;2022-08-19T12:48:03;25.70;99.90
8463;DHT22;4268;52.506;13.462;2022-08-19T12:50:29;25.70;99.90
8463;DHT22;4268;52.506;13.462;2022-08-19T12:52:56;25.70;99.90
8463;DHT22;4268;52.506;13.462;2022-08-19T12:55:22;25.80;99.90
8463;DHT22;4268;52.506;13.462;2022-08-19T12:57:47;25.80;99.90
8463;DHT22;4268;52.506;13.462;2022-08-19T13:00:16;25.90;99.90
8463;DHT22;4268;52.506;13.462;2022-08-19T13:02:44;26.00;99.90
8463;DHT22;4268;52.506;13.462;2022-08-19T13:05:13;26.00;99.90
8463;DHT22;4268;52.506;13.462;2022-08-19T13:07:41;26.00;99.90
8463;DHT22;4268;52.506;13.462;2022-08-19T13:10:08;25.90;99.90
8463;DHT22;4268;52.506;13.462;2022-08-19T13:12:34;25.80;99.90
8463;DHT22;4268;52.506;13.462;2022-08-19T13:15:00;25.90;99.90
8463;DHT22;4268;52.506;13.462;2022-08-19T13:17:25;25.90;99.90
8463;DHT22;4268;52.506;13.462;2022-08-19T13:19:51;25.90;99.90
8463;DHT22;4268;52.506;13.462;2022-08-19T13:22:17;25.90;99.90
8463;DHT22;4268;52.506;13.462;2022-08-19T13:24:42;25.90;99.90
8463;DHT22;4268;52.506;13.462;2022-08-19T13:27:08;25.90;99.90
8463;DHT22;4268;52.506;13.462;2022-08-19T13:29:34;25.80;99.90
8463;DHT22;4268;52.506;13.462;2022-08-19T13:32:18;25.80;99.90
8463;DHT22;4268;52.506;13.462;2022-08-19T13:35:03;25.80;99.90
8463;DHT22;4268;52.506;13.462;2022-08-19T13:37:28;25.90;99.90
8463;DHT22;4268;52.506;13.462;2022-08-19T13:40:18;25.80;99.90
8463;DHT22;4268;52.506;13.462;2022-08-19T13:42:45;25.90;99.90
8463;DHT22;4268;52.506;13.462;2022-08-19T13:45:13;25.90;99.90
8463;DHT22;4268;52.506;13.462;2022-08-19T13:47:40;25.80;99.90
8463;DHT22;4268;52.506;13.462;2022-08-19T13:50:12;25.80;99.90
8463;DHT22;4268;52.506;13.462;2022-08-19T13:52:38;25.70;99.90
8463;DHT22;4268;52.506;13.462;2022-08-19T13:55:05;25.70;99.90
8463;DHT22;4268;52.506;13.462;2022-08-19T13:57:31;25.60;99.90
8463;DHT22;4268;52.506;13.462;2022-08-19T14:00:00;25.50;99.90
8463;DHT22;4268;52.506;13.462;2022-08-19T14:02:26;25.50;99.90
8463;DHT22;4268;52.506;13.462;2022-08-19T14:04:52;25.40;99.90
8463;DHT22;4268;52.506;13.462;2022-08-19T14:07:17;25.40;99.90
8463;DHT22;4268;52.506;13.462;2022-08-19T14:09:43;25.30;99.90
8463;DHT22;4268;52.506;13.462;2022-08-19T14:12:09;25.30;99.90
8463;DHT22;4268;52.506;13.462;2022-08-19T14:14:38;25.30;99.90
8463;DHT22;4268;52.506;13.462;2022-08-19T14:17:07;25.20;99.90
8463;DHT22;4268;52.506;13.462;2022-08-19T14:19:33;25.10;99.90
8463;DHT22;4268;52.506;13.462;2022-08-19T14:21:59;25.10;99.90
8463;DHT22;4268;52.506;13.462;2022-08-19T14:24:24;25.10;99.90
8463;DHT22;4268;52.506;13.462;2022-08-19T14:26:50;25.10;99.90
8463;DHT22;4268;52.506;13.462;2022-08-19T14:29:15;25.10;99.90
8463;DHT22;4268;52.506;13.462;2022-08-19T14:31:41;25.10;99.90
8463;DHT22;4268;52.506;13.462;2022-08-19T14:34:08;25.10;99.90
8463;DHT22;4268;52.506;13.462;2022-08-19T14:36:36;25.10;99.90
8463;DHT22;4268;52.506;13.462;2022-08-19T14:39:01;25.10;99.90
8463;DHT22;4268;52.506;13.462;2022-08-19T14:41:27;25.20;99.90
8463;DHT22;4268;52.506;13.462;2022-08-19T14:43:53;25.20;99.90
8463;DHT22;4268;52.506;13.462;2022-08-19T14:46:21;25.20;99.90
8463;DHT22;4268;52.506;13.462;2022-08-19T14:48:49;25.20;99.90
8463;DHT22;4268;52.506;13.462;2022-08-19T14:51:15;25.20;99.90
8463;DHT22;4268;52.506;13.462;2022-08-19T14:53:41;25.20;99.90
8463;DHT22;4268;52.506;13.462;2022-08-19T14:56:09;25.10;99.90
8463;DHT22;4268;52.506;13.462;2022-08-19T14:58:35;25.00;99.90
8463;DHT22;4268;52.506;13.462;2022-08-19T15:01:01;24.90;99.90
8463;DHT22;4268;52.506;13.462;2022-08-19T15:03:27;24.80;99.90
8463;DHT22;4268;52.506;13.462;2022-08-19T15:05:54;24.80;99.90
8463;DHT22;4268;52.506;13.462;2022-08-19T15:08:20;24.80;99.90
8463;DHT22;4268;52.506;13.462;2022-08-19T15:10:47;24.80;99.90
8463;DHT22;4268;52.506;13.462;2022-08-19T15:13:13;24.80;99.90
8463;DHT22;4268;52.506;13.462;2022-08-19T15:15:39;24.80;99.90
8463;DHT22;4268;52.506;13.462;2022-08-19T15:18:04;24.80;99.90
8463;DHT22;4268;52.506;13.462;2022-08-19T15:20:30;24.70;99.90
8463;DHT22;4268;52.506;13.462;2022-08-19T15:22:57;24.70;99.90
8463;DHT22;4268;52.506;13.462;2022-08-19T15:25:24;24.70;99.90
8463;DHT22;4268;52.506;13.462;2022-08-19T15:27:50;24.70;99.90
8463;DHT22;4268;52.506;13.462;2022-08-19T15:30:24;24.70;99.90
8463;DHT22;4268;52.506;13.462;2022-08-19T15:32:50;24.60;99.90
8463;DHT22;4268;52.506;13.462;2022-08-19T15:35:18;24.60;99.90
8463;DHT22;4268;52.506;13.462;2022-08-19T15:37:44;24.60;99.90
8463;DHT22;4268;52.506;13.462;2022-08-19T15:40:11;24.50;99.90
8463;DHT22;4268;52.506;13.462;2022-08-19T15:42:37;24.50;99.90
8463;DHT22;4268;52.506;13.462;2022-08-19T15:45:05;24.40;99.90
8463;DHT22;4268;52.506;13.462;2022-08-19T15:47:31;24.40;99.90
8463;DHT22;4268;52.506;13.462;2022-08-19T15:49:56;24.30;99.90
8463;DHT22;4268;52.506;13.462;2022-08-19T15:52:23;24.30;99.90
8463;DHT22;4268;52.506;13.462;2022-08-19T15:54:49;24.30;99.90
8463;DHT22;4268;52.506;13.462;2022-08-19T15:57:14;24.20;99.90
8463;DHT22;4268;52.506;13.462;2022-08-19T15:59:46;24.20;99.90
8463;DHT22;4268;52.506;13.462;2022-08-19T16:02:31;24.20;99.90